Time;durP1;ratioP1;P1;durP2;ratioP2;P2;SDS_P1;SDS_P2;PMS_P1;PMS_P2;Temp;Humidity;BMP_temperature;BMP_pressure;BME280_temperature;BME280_humidity;BME280_pressure;Samples;Min_cycle;Max_cycle;Signal;HPM_P1;HPM_P2
2022/04/09 00:02:06;;;;;;;13.98;4.15;;;;;;;1.80;100.00;161040.47;5029314;28;20041;-60
2022/04/09 00:04:31;;;;;;;23.25;5.78;;;;;;;1.83;100.00;161049.88;5030269;28;20048;-60
2022/04/09 00:06:57;;;;;;;9.50;4.03;;;;;;;1.84;100.00;161052.56;5029046;28;20100;-60
2022/04/09 00:09:22;;;;;;;12.35;5.88;;;;;;;1.85;100.00;161055.25;5030090;28;20032;-60
2022/04/09 00:11:48;;;;;;;17.73;5.53;;;;;;;1.88;100.00;161061.94;5029272;28;20516;-60
2022/04/09 00:14:13;;;;;;;13.85;5.90;;;;;;;1.93;100.00;161074.03;5029673;28;20105;-60
2022/04/09 00:16:39;;;;;;;12.95;4.03;;;;;;;2.03;100.00;161102.22;5029199;28;20038;-60
2022/04/09 00:19:05;;;;;;;24.45;6.13;;;;;;;2.07;100.00;161111.59;5030564;28;20044;-60
2022/04/09 00:21:31;;;;;;;14.23;4.03;;;;;;;2.15;100.00;161133.09;5028673;28;20501;-60
2022/04/09 00:23:57;;;;;;;27.73;8.40;;;;;;;2.15;100.00;161133.09;5030414;28;20080;-60
2022/04/09 00:26:22;;;;;;;14.30;5.10;;;;;;;2.18;100.00;161141.16;5028799;28;20516;-60
2022/04/09 00:28:48;;;;;;;18.75;5.38;;;;;;;2.24;100.00;161154.56;5032112;28;20104;-60
2022/04/09 00:31:13;;;;;;;21.70;6.80;;;;;;;2.28;100.00;161166.66;5032637;28;20041;-60
2022/04/09 00:33:38;;;;;;;21.05;6.10;;;;;;;2.28;100.00;161165.28;5033392;28;20500;-61
2022/04/09 00:36:04;;;;;;;23.38;4.07;;;;;;;2.26;100.00;161159.94;5032403;28;20034;-60
2022/04/09 00:38:30;;;;;;;16.15;5.78;;;;;;;2.31;100.00;161173.34;5033931;28;20032;-60
2022/04/09 00:40:55;;;;;;;22.10;8.43;;;;;;;2.43;100.00;161205.56;5032732;28;20392;-60
2022/04/09 00:43:21;;;;;;;18.95;6.03;;;;;;;2.46;100.00;161213.63;5033305;28;20075;-60
2022/04/09 00:45:50;;;;;;;9.90;5.18;;;;;;;2.42;100.00;161202.88;5032146;28;20013;-60
2022/04/09 00:48:16;;;;;;;;;;;;;;;2.37;100.00;161190.84;5034387;28;20496;-59
2022/04/09 00:50:42;;;;;;;18.90;6.30;;;;;;;2.36;100.00;161186.75;5033183;28;20295;-59
2022/04/09 00:53:09;;;;;;;17.08;4.70;;;;;;;2.32;100.00;161176.06;5032352;28;20042;-59
2022/04/09 00:58:20;;;;;;;12.68;6.13;;;;;;;2.15;100.00;161133.09;5031565;28;20457;-59
2022/04/09 01:00:46;;;;;;;15.40;6.03;;;;;;;2.02;100.00;161098.19;5031704;28;20052;-58
2022/04/09 01:03:18;;;;;;;19.70;4.80;;;;;;;2.07;100.00;161111.59;5033681;28;20096;-59
2022/04/09 01:05:44;;;;;;;19.80;5.63;;;;;;;2.08;100.00;161114.31;5032964;28;20037;-60
2022/04/09 01:08:09;;;;;;;14.60;5.20;;;;;;;2.04;100.00;161103.59;5033462;28;20018;-59
2022/04/09 01:10:35;;;;;;;15.65;6.70;;;;;;;2.13;100.00;161127.72;5033491;28;20057;-60
2022/04/09 01:13:01;;;;;;;15.95;5.57;;;;;;;2.13;100.00;161127.72;5031151;28;20068;-59
2022/04/09 01:15:26;;;;;;;17.27;4.85;;;;;;;2.24;100.00;161154.56;5033136;28;20102;-58
2022/04/09 01:17:52;;;;;;;23.35;7.30;;;;;;;2.23;100.00;161153.25;5031756;28;20138;-58
2022/04/09 01:20:22;;;;;;;20.75;6.68;;;;;;;2.17;100.00;161138.47;5032812;28;20036;-60
2022/04/09 01:22:48;;;;;;;15.82;4.95;;;;;;;2.27;100.00;161162.66;5031695;28;20033;-60
2022/04/09 01:25:14;;;;;;;10.40;4.50;;;;;;;2.34;100.00;161181.44;5032471;28;20022;-60
2022/04/09 01:27:40;;;;;;;12.20;5.20;;;;;;;2.38;100.00;161192.16;5030994;28;20540;-59
2022/04/09 01:30:06;;;;;;;17.65;6.15;;;;;;;2.44;100.00;161208.25;5032800;28;20030;-59
2022/04/09 01:32:32;;;;;;;14.35;5.50;;;;;;;2.48;100.00;161219.03;5031193;28;20043;-60
2022/04/09 01:35:00;;;;;;;12.00;3.58;;;;;;;2.47;100.00;161216.31;5032486;28;20112;-59
2022/04/09 01:37:26;;;;;;;19.20;4.72;;;;;;;2.46;100.00;161213.63;5031249;28;20562;-59
2022/04/09 01:39:51;;;;;;;19.98;5.30;;;;;;;2.51;100.00;161227.03;5031613;28;20033;-60
2022/04/09 01:42:18;;;;;;;11.30;3.72;;;;;;;2.52;100.00;161229.75;5030549;28;20042;-60
2022/04/09 01:44:44;;;;;;;15.98;4.82;;;;;;;2.51;100.00;161227.03;5032287;28;20566;-60
2022/04/09 01:47:09;;;;;;;18.38;4.43;;;;;;;2.50;100.00;161224.34;5030648;28;20117;-60
2022/04/09 01:49:35;;;;;;;18.40;6.35;;;;;;;2.49;100.00;161220.34;5031610;28;20444;-60
2022/04/09 01:52:00;;;;;;;20.10;5.78;;;;;;;2.44;100.00;161208.25;5030823;28;20045;-60
2022/04/09 01:54:25;;;;;;;10.75;4.85;;;;;;;2.39;100.00;161194.84;5032176;28;20024;-60
2022/04/09 01:56:51;;;;;;;12.57;4.63;;;;;;;2.37;100.00;161190.84;5030826;28;20060;-60
2022/04/09 01:59:16;;;;;;;18.67;5.60;;;;;;;2.36;100.00;161186.75;5031821;28;20401;-60
2022/04/09 02:01:41;;;;;;;11.85;4.35;;;;;;;2.44;100.00;161208.25;5030961;28;20048;-60
2022/04/09 02:04:07;;;;;;;11.15;4.20;;;;;;;2.51;100.00;161227.03;5032414;28;20049;-60
2022/04/09 02:06:33;;;;;;;12.98;4.40;;;;;;;2.59;100.00;161245.84;5029582;28;20044;-60
2022/04/09 02:08:58;;;;;;;15.93;4.43;;;;;;;2.60;100.00;161248.53;5032349;28;20032;-60
2022/04/09 02:11:23;;;;;;;9.80;3.58;;;;;;;2.58;100.00;161243.16;5030427;28;20033;-60
2022/04/09 02:13:51;;;;;;;15.85;3.35;;;;;;;2.54;100.00;161235.13;5031867;28;20029;-60
2022/04/09 02:16:17;;;;;;;11.43;4.40;;;;;;;2.53;100.00;161231.09;5029926;28;20041;-60
2022/04/09 02:18:43;;;;;;;21.40;5.65;;;;;;;2.54;100.00;161235.13;5032174;28;20036;-60
2022/04/09 02:21:10;;;;;;;13.68;4.55;;;;;;;2.53;100.00;161232.44;5030199;28;20033;-60
2022/04/09 02:23:36;;;;;;;14.70;4.05;;;;;;;2.58;100.00;161243.16;5031778;28;20060;-60
2022/04/09 02:26:01;;;;;;;17.90;5.75;;;;;;;2.62;100.00;161253.91;5030700;28;20429;-60
2022/04/09 02:28:27;;;;;;;11.25;4.72;;;;;;;2.65;100.00;161261.94;5031231;28;20118;-60
2022/04/09 02:30:53;;;;;;;11.88;3.40;;;;;;;2.59;100.00;161245.84;5030253;28;20048;-59
2022/04/09 02:33:18;;;;;;;18.02;5.20;;;;;;;2.51;100.00;161227.03;5031702;28;20025;-59
2022/04/09 02:35:44;;;;;;;12.60;6.13;;;;;;;2.41;100.00;161200.22;5031715;28;20497;-60
2022/04/09 02:38:09;;;;;;;12.85;5.70;;;;;;;2.45;100.00;161209.63;5030175;28;20041;-60
2022/04/09 02:40:35;;;;;;;9.93;4.32;;;;;;;2.45;100.00;161209.63;5031466;28;20396;-60
2022/04/09 02:43:01;;;;;;;12.98;3.45;;;;;;;2.48;100.00;161219.03;5029754;28;20042;-60
2022/04/09 02:45:26;;;;;;;7.75;3.88;;;;;;;2.52;100.00;161229.75;5031346;28;20095;-60
2022/04/09 02:47:52;;;;;;;13.40;5.55;;;;;;;2.49;100.00;161221.72;5029870;28;20052;-60
2022/04/09 02:50:19;;;;;;;8.15;4.07;;;;;;;2.51;100.00;161227.03;5030982;28;20032;-61
2022/04/09 02:52:44;;;;;;;13.88;4.82;;;;;;;2.48;100.00;161219.03;5030095;28;20037;-60
2022/04/09 02:55:10;;;;;;;13.50;5.70;;;;;;;2.45;100.00;161210.94;5031639;28;20040;-59
2022/04/09 02:57:37;;;;;;;11.52;4.35;;;;;;;2.36;100.00;161188.13;5028785;28;20041;-59
2022/04/09 03:00:06;;;;;;;7.85;4.68;;;;;;;2.28;100.00;161165.28;5031305;28;20053;-58
2022/04/09 03:02:35;;;;;;;10.65;4.50;;;;;;;2.19;100.00;161143.84;5029845;28;20104;-60
2022/04/09 03:05:00;;;;;;;5.25;3.80;;;;;;;2.14;100.00;161130.41;5031496;28;20026;-60
2022/04/09 03:07:26;;;;;;;19.35;5.85;;;;;;;2.07;100.00;161111.59;5029337;28;20048;-60
2022/04/09 03:09:51;;;;;;;17.40;4.30;;;;;;;2.01;100.00;161095.50;5031289;28;20076;-60
2022/04/09 03:12:16;;;;;;;12.75;4.47;;;;;;;2.09;100.00;161115.63;5028805;28;20033;-60
2022/04/09 03:14:44;;;;;;;24.88;6.35;;;;;;;2.16;100.00;161135.78;5031465;28;20044;-60
2022/04/09 03:17:10;;;;;;;12.75;4.38;;;;;;;2.24;100.00;161154.56;5029565;28;20041;-60
2022/04/09 03:19:35;;;;;;;11.95;3.65;;;;;;;2.30;100.00;161170.66;5030933;28;20048;-58
2022/04/09 03:22:00;;;;;;;7.53;3.85;;;;;;;2.36;100.00;161186.75;5029651;28;20041;-58
2022/04/09 03:24:26;;;;;;;8.05;3.55;;;;;;;2.41;100.00;161200.22;5030565;28;20021;-59
2022/04/09 03:26:51;;;;;;;10.68;3.67;;;;;;;2.44;100.00;161206.94;5028928;28;20053;-59
2022/04/09 03:29:16;;;;;;;26.23;7.38;;;;;;;2.42;100.00;161202.88;5030956;28;20025;-59
2022/04/09 03:31:42;;;;;;;8.40;4.35;;;;;;;2.42;100.00;161201.53;5029896;28;20030;-59
2022/04/09 03:34:07;;;;;;;10.82;4.40;;;;;;;2.38;100.00;161192.16;5030863;28;20017;-58
2022/04/09 03:36:32;;;;;;;13.30;6.60;;;;;;;2.30;100.00;161170.66;5029092;28;20041;-59
2022/04/09 03:38:58;;;;;;;21.73;5.85;;;;;;;2.35;100.00;161184.06;5030584;28;20524;-59
2022/04/09 03:41:23;;;;;;;18.40;5.07;;;;;;;2.37;100.00;161189.47;5029095;28;20107;-59
2022/04/09 03:43:50;;;;;;;7.75;3.63;;;;;;;2.46;100.00;161213.63;5030844;28;20084;-59
2022/04/09 03:46:16;;;;;;;12.00;5.55;;;;;;;2.47;100.00;161214.97;5029206;28;20041;-59
2022/04/09 03:48:43;;;;;;;13.35;5.10;;;;;;;2.41;100.00;161200.22;5029998;28;20108;-59
2022/04/09 03:51:09;;;;;;;13.60;4.03;;;;;;;2.37;100.00;161189.47;5029383;28;20041;-59
2022/04/09 03:53:34;;;;;;;14.23;3.83;;;;;;;2.30;100.00;161170.66;5030181;28;20023;-59
2022/04/09 03:56:00;;;;;;;12.63;3.60;;;;;;;2.27;100.00;161162.66;5029270;28;20140;-59
2022/04/09 03:58:26;;;;;;;23.23;5.78;;;;;;;2.29;100.00;161167.97;5030152;28;20071;-60
2022/04/09 04:00:53;;;;;;;11.63;4.20;;;;;;;2.34;100.00;161181.44;5029143;28;20053;-59
2022/04/09 04:03:19;;;;;;;5.72;2.78;;;;;;;2.41;100.00;161200.22;5031297;28;20096;-59
2022/04/09 04:05:45;;;;;;;8.05;3.35;;;;;;;2.49;100.00;161221.72;5033505;28;20377;-59
2022/04/09 04:08:11;;;;;;;10.27;3.35;;;;;;;2.56;100.00;161239.13;5034026;28;20036;-59
2022/04/09 04:10:37;;;;;;;10.50;2.97;;;;;;;2.57;100.00;161240.50;5033880;28;20079;-60
2022/04/09 04:13:04;;;;;;;6.93;2.80;;;;;;;2.49;100.00;161220.34;5033172;28;20045;-55
2022/04/09 04:15:29;;;;;;;6.60;2.97;;;;;;;2.54;100.00;161233.75;5033250;28;20037;-55
2022/04/09 04:17:55;;;;;;;10.25;3.38;;;;;;;2.49;100.00;161221.72;5032509;28;20056;-55
2022/04/09 04:20:21;;;;;;;11.10;3.47;;;;;;;2.49;100.00;161221.72;5034072;28;20036;-55
2022/04/09 04:22:46;;;;;;;13.85;5.28;;;;;;;2.47;100.00;161216.31;5031654;28;20042;-55
2022/04/09 04:25:11;;;;;;;9.00;3.22;;;;;;;2.42;100.00;161202.88;5033566;28;20041;-55
2022/04/09 04:27:46;;;;;;;8.68;4.13;;;;;;;2.38;100.00;161193.47;5031742;28;20109;-55
2022/04/09 04:30:12;;;;;;;19.88;4.45;;;;;;;2.40;100.00;161197.53;5034244;28;20048;-55
2022/04/09 04:32:38;;;;;;;16.60;4.45;;;;;;;2.43;100.00;161204.25;5032516;28;20171;-55
2022/04/09 04:35:04;;;;;;;19.42;4.68;;;;;;;2.49;100.00;161220.34;5034237;28;20025;-55
2022/04/09 04:37:37;;;;;;;12.32;4.30;;;;;;;2.47;100.00;161216.31;5032423;28;20034;-54
2022/04/09 04:40:03;;;;;;;23.20;6.57;;;;;;;2.44;100.00;161206.94;5029209;28;20104;-55
2022/04/09 04:42:29;;;;;;;15.70;3.90;;;;;;;2.40;100.00;161197.53;5030542;28;20060;-56
2022/04/09 04:44:54;;;;;;;16.58;3.55;;;;;;;2.38;100.00;161192.16;5030300;28;20083;-55
2022/04/09 04:47:19;;;;;;;10.75;3.28;;;;;;;2.39;100.00;161194.84;5031181;28;20120;-55
2022/04/09 04:49:45;;;;;;;22.88;6.05;;;;;;;2.39;100.00;161194.84;5032675;28;20469;-55
2022/04/09 04:52:10;;;;;;;16.08;4.03;;;;;;;2.43;100.00;161205.56;5031891;28;20444;-55
2022/04/09 04:54:36;;;;;;;14.43;3.63;;;;;;;2.38;100.00;161193.47;5030367;28;20173;-55
2022/04/09 04:57:02;;;;;;;17.38;4.30;;;;;;;2.32;100.00;161176.06;5030760;28;20044;-55
2022/04/09 04:59:27;;;;;;;14.80;5.35;;;;;;;2.33;100.00;161178.75;5031955;28;20033;-54
2022/04/09 05:01:53;;;;;;;6.45;4.18;;;;;;;2.30;100.00;161170.66;5030492;28;20065;-55
2022/04/09 05:04:18;;;;;;;12.88;4.60;;;;;;;2.22;100.00;161151.88;5032507;28;20030;-55
2022/04/09 05:06:45;;;;;;;23.42;4.57;;;;;;;2.25;100.00;161157.25;5031321;28;20041;-55
2022/04/09 05:09:10;;;;;;;10.60;5.30;;;;;;;2.20;100.00;161145.19;5031624;28;20037;-55
2022/04/09 05:11:36;;;;;;;22.67;5.72;;;;;;;2.14;100.00;161130.41;5031285;28;20493;-55
2022/04/09 05:14:03;;;;;;;15.35;4.03;;;;;;;2.19;100.00;161143.84;5031990;28;20075;-55
2022/04/09 05:16:29;;;;;;;8.40;3.83;;;;;;;2.24;100.00;161154.56;5029153;28;20116;-55
2022/04/09 05:18:54;;;;;;;7.18;2.95;;;;;;;2.25;100.00;161157.25;5032209;28;20032;-55
2022/04/09 05:21:19;;;;;;;19.55;6.10;;;;;;;2.22;100.00;161151.88;5030384;28;20270;-55
2022/04/09 05:23:45;;;;;;;6.10;3.15;;;;;;;2.12;100.00;161125.06;5031816;28;20038;-55
2022/04/09 05:26:10;;;;;;;8.55;3.15;;;;;;;2.05;100.00;161106.22;5030831;28;20041;-55
2022/04/09 05:28:35;;;;;;;9.40;5.22;;;;;;;1.98;100.00;161087.44;5032323;28;20469;-55
2022/04/09 05:31:02;;;;;;;4.97;3.25;;;;;;;1.96;100.00;161083.44;5029536;28;20040;-55
2022/04/09 05:33:28;;;;;;;10.23;3.80;;;;;;;1.96;100.00;161082.09;5032233;28;20028;-55
2022/04/09 05:35:54;;;;;;;16.08;4.00;;;;;;;1.93;100.00;161074.03;5032163;28;20029;-55
2022/04/09 05:38:20;;;;;;;7.65;4.20;;;;;;;1.86;100.00;161057.94;5030004;28;20039;-55
2022/04/09 05:40:46;;;;;;;8.00;2.95;;;;;;;1.80;100.00;161041.84;5031255;28;20500;-55
2022/04/09 05:43:11;;;;;;;12.75;3.95;;;;;;;1.70;100.00;161016.34;5029531;28;20049;-55
2022/04/09 05:45:37;;;;;;;17.35;4.75;;;;;;;1.76;100.00;161031.09;5030913;28;20026;-55
2022/04/09 05:48:03;;;;;;;12.05;4.80;;;;;;;1.89;100.00;161064.66;5030219;28;20515;-55
2022/04/09 05:50:29;;;;;;;9.00;4.65;;;;;;;1.92;100.00;161071.34;5032116;28;20025;-55
2022/04/09 05:52:54;;;;;;;16.33;4.22;;;;;;;1.84;100.00;161052.56;5029093;28;20052;-55
2022/04/09 05:55:19;;;;;;;15.57;4.38;;;;;;;1.78;100.00;161036.47;5031171;28;20029;-55
2022/04/09 05:57:45;;;;;;;12.38;4.53;;;;;;;1.81;100.00;161043.16;5028950;28;20037;-55
2022/04/09 06:00:11;;;;;;;26.45;4.97;;;;;;;1.82;100.00;161047.22;5031211;28;20535;-55
2022/04/09 06:02:39;;;;;;;16.50;4.55;;;;;;;1.83;100.00;161049.88;5026762;28;20102;-55
2022/04/09 06:05:08;;;;;;;6.88;3.75;;;;;;;1.97;100.00;161084.81;5032096;28;20381;-55
2022/04/09 06:07:33;;;;;;;15.43;4.85;;;;;;;2.08;100.00;161114.31;5030156;28;20526;-55
2022/04/09 06:09:59;;;;;;;49.63;7.40;;;;;;;2.20;100.00;161145.19;5031935;28;20092;-55
2022/04/09 06:12:24;;;;;;;23.33;5.70;;;;;;;2.31;100.00;161174.69;5030409;28;20096;-55
2022/04/09 06:14:50;;;;;;;13.23;4.45;;;;;;;2.46;100.00;161213.63;5032043;28;20029;-55
2022/04/09 06:17:15;;;;;;;11.35;4.80;;;;;;;2.56;100.00;161237.81;5029821;28;20488;-55
2022/04/09 06:19:40;;;;;;;18.05;3.53;;;;;;;2.67;100.00;161268.69;5031747;28;20123;-55
2022/04/09 06:22:06;;;;;;;11.45;5.68;;;;;;;2.81;100.00;161303.59;5030300;28;20048;-55
2022/04/09 06:24:31;;;;;;;13.68;5.30;;;;;;;2.85;100.00;161314.31;5031418;28;20465;-55
2022/04/09 06:26:57;;;;;;;8.77;3.22;;;;;;;2.86;100.00;161317.00;5030122;28;20040;-55
2022/04/09 06:29:22;;;;;;;17.88;5.28;;;;;;;2.88;100.00;161322.41;5031256;28;20029;-55
2022/04/09 06:31:47;;;;;;;13.77;4.05;;;;;;;2.88;100.00;161321.03;5029415;28;20042;-55
2022/04/09 06:34:14;;;;;;;14.93;4.32;;;;;;;2.97;100.00;161346.59;5031556;28;20071;-55
2022/04/09 06:36:40;;;;;;;10.35;5.47;;;;;;;3.10;100.00;161380.13;5028876;28;20034;-55
2022/04/09 06:39:05;;;;;;;13.50;4.07;;;;;;;3.32;100.00;161436.53;5030224;28;20037;-55
2022/04/09 06:41:31;;;;;;;13.95;5.32;;;;;;;3.55;100.00;161495.63;5029320;28;20045;-55
2022/04/09 06:43:56;;;;;;;13.93;6.13;;;;;;;3.82;100.00;161566.84;5031159;28;20021;-55
2022/04/09 06:46:21;;;;;;;26.55;4.55;;;;;;;4.05;100.00;161627.38;5029164;28;20451;-55
2022/04/09 06:48:47;;;;;;;15.63;5.15;;;;;;;3.95;100.00;161600.47;5030869;28;20029;-55
2022/04/09 06:51:12;;;;;;;18.90;4.97;;;;;;;3.97;100.00;161605.84;5029788;28;20059;-55
2022/04/09 06:53:38;;;;;;;16.27;4.93;;;;;;;3.97;100.00;161607.19;5030769;28;20036;-55
2022/04/09 06:56:07;;;;;;;14.15;4.95;;;;;;;4.04;100.00;161623.28;5029651;28;20025;-55
2022/04/09 06:58:33;;;;;;;;;;;;;;;4.06;100.00;161630.00;5031572;28;20040;-55
2022/04/09 07:00:59;;;;;;;16.48;5.57;;;;;;;4.24;100.00;161675.72;5029260;28;19917;-55
2022/04/09 07:03:24;;;;;;;14.25;6.32;;;;;;;4.51;100.00;161745.59;5030710;28;20017;-55
2022/04/09 07:05:50;;;;;;;16.13;4.95;;;;;;;4.65;100.00;161783.28;5029834;28;20029;-55
2022/04/09 07:08:16;;;;;;;12.98;4.13;;;;;;;4.66;100.00;161785.94;5030450;28;20049;-55
2022/04/09 07:10:42;;;;;;;13.35;4.30;;;;;;;4.83;100.00;161828.97;5031067;28;20025;-55
2022/04/09 07:13:07;;;;;;;19.35;6.35;;;;;;;4.99;100.00;161872.03;5029742;28;20045;-55
2022/04/09 07:15:34;;;;;;;11.25;3.30;;;;;;;5.24;100.00;161936.59;5030484;28;20465;-55
2022/04/09 07:17:59;;;;;;;7.82;3.72;;;;;;;5.53;100.00;162011.94;5029279;28;20049;-54
2022/04/09 07:20:24;;;;;;;12.82;5.00;;;;;;;5.46;100.00;161993.09;5030648;28;20022;-55
2022/04/09 07:22:50;;;;;;;9.50;2.95;;;;;;;5.59;100.00;162028.06;5029256;28;20049;-56
2022/04/09 07:25:16;;;;;;;6.57;3.00;;;;;;;6.09;100.00;162158.66;5030504;28;20017;-56
2022/04/09 07:27:45;;;;;;;14.82;3.20;;;;;;;6.72;100.00;162321.53;5029077;28;20042;-55
2022/04/09 07:30:13;;;;;;;7.65;2.25;;;;;;;7.26;100.00;162464.22;5027125;28;20474;-56
2022/04/09 07:32:40;;;;;;;17.30;4.38;;;;;;;7.81;100.00;162607.06;5029375;28;20119;-56
2022/04/09 07:35:05;;;;;;;10.82;2.65;;;;;;;8.09;100.00;162679.81;5030863;28;20469;-53
2022/04/09 07:37:31;;;;;;;10.45;4.95;;;;;;;7.85;100.00;162617.84;5028000;28;20118;-53
2022/04/09 07:39:57;;;;;;;8.48;2.67;;;;;;;7.05;100.00;162407.66;5030029;28;20373;-53
2022/04/09 07:42:22;;;;;;;7.50;3.85;;;;;;;6.27;100.00;162205.75;5028892;28;20535;-53
2022/04/09 07:44:48;;;;;;;11.98;4.22;;;;;;;5.98;100.00;162130.34;5030247;28;20025;-56
2022/04/09 07:47:14;;;;;;;13.60;4.95;;;;;;;5.75;100.00;162068.44;5028873;28;20809;-56
2022/04/09 07:49:39;;;;;;;10.23;3.75;;;;;;;5.50;100.00;162003.81;5030681;28;20029;-54
2022/04/09 07:52:05;;;;;;;7.95;2.60;;;;;;;5.34;100.00;161963.47;5029057;28;20401;-56
2022/04/09 07:54:31;;;;;;;11.90;4.40;;;;;;;5.52;100.00;162009.22;5030355;28;20034;-56
2022/04/09 07:56:56;;;;;;;10.40;4.10;;;;;;;5.74;100.00;162065.72;5029097;28;20500;-56
2022/04/09 07:59:22;;;;;;;14.82;4.50;;;;;;;5.72;100.00;162063.03;5030170;28;20036;-56
2022/04/09 08:01:47;;;;;;;11.70;3.88;;;;;;;5.64;100.00;162040.19;5028579;28;20045;-56
2022/04/09 08:04:12;;;;;;;11.90;5.22;;;;;;;5.30;100.00;161951.34;5030274;28;20041;-56
2022/04/09 08:06:38;;;;;;;11.63;2.97;;;;;;;5.13;100.00;161908.34;5028817;28;20037;-56
2022/04/09 08:09:04;;;;;;;13.93;4.07;;;;;;;5.17;100.00;161917.78;5030122;28;20025;-56
2022/04/09 08:11:29;;;;;;;7.75;3.40;;;;;;;5.13;100.00;161906.97;5028791;28;20049;-56
2022/04/09 08:13:55;;;;;;;11.57;3.97;;;;;;;5.12;100.00;161905.66;5027466;28;20037;-56
2022/04/09 08:16:20;;;;;;;13.02;3.90;;;;;;;5.18;100.00;161920.41;5027604;28;20052;-56
2022/04/09 08:18:45;;;;;;;7.50;3.72;;;;;;;5.24;100.00;161937.91;5029873;28;20024;-55
2022/04/09 08:21:11;;;;;;;18.17;5.88;;;;;;;5.37;100.00;161970.19;5028751;28;20045;-56
2022/04/09 08:23:36;;;;;;;23.48;4.75;;;;;;;5.45;100.00;161991.72;5029709;28;20022;-56
2022/04/09 08:26:02;;;;;;;9.00;3.20;;;;;;;6.18;100.00;162181.50;5028896;28;20100;-56
2022/04/09 08:28:30;;;;;;;8.32;3.03;;;;;;;7.01;100.00;162396.91;5029646;28;20083;-56
2022/04/09 08:30:55;;;;;;;7.63;2.80;;;;;;;7.66;100.00;162568.00;5026503;28;20366;-55
2022/04/09 08:33:21;;;;;;;10.25;3.55;;;;;;;8.15;100.00;162696.00;5030006;28;20036;-56
2022/04/09 08:35:47;;;;;;;8.88;4.22;;;;;;;7.80;100.00;162604.34;5028826;28;20017;-56
2022/04/09 08:38:13;;;;;;;9.52;2.78;;;;;;;7.23;100.00;162454.81;5029751;28;20040;-56
2022/04/09 08:40:40;;;;;;;8.27;2.88;;;;;;;6.99;100.00;162394.22;5029788;28;20412;-56
2022/04/09 08:43:06;;;;;;;13.75;3.42;;;;;;;6.65;100.00;162305.38;5028385;28;20049;-56
2022/04/09 08:45:41;;;;;;;10.45;2.38;;;;;;;6.38;100.00;162232.63;5029180;28;20503;-56
2022/04/09 08:48:07;;;;;;;9.88;2.60;;;;;;;6.41;100.00;162242.06;5028598;28;20128;-56
2022/04/09 08:50:35;;;;;;;10.20;4.88;;;;;;;6.41;100.00;162240.75;5031896;28;20025;-56
2022/04/09 08:53:06;;;;;;;7.10;2.35;;;;;;;6.48;100.00;162260.91;5031000;28;20520;-56
2022/04/09 08:55:32;;;;;;;11.77;3.33;;;;;;;7.25;100.00;162461.59;5032853;28;20392;-56
2022/04/09 08:57:58;;;;;;;8.80;2.55;;;;;;;7.46;100.00;162515.44;5031444;28;20049;-56
2022/04/09 09:00:23;;;;;;;7.18;2.45;;;;;;;8.18;100.00;162702.75;5031852;28;20049;-56
2022/04/09 09:02:54;;;;;;;14.05;6.78;;;;;;;8.47;100.00;162779.59;5031805;28;20049;-56
2022/04/09 09:05:37;;;;;;;12.52;3.70;;;;;;;8.01;100.00;162658.22;5032852;28;20079;-56
2022/04/09 09:08:03;;;;;;;13.07;3.25;;;;;;;7.44;100.00;162510.06;5024344;28;20090;-56
2022/04/09 09:10:29;;;;;;;7.85;3.85;;;;;;;7.32;100.00;162477.75;5032967;28;20040;-56
2022/04/09 09:12:59;;;;;;;25.38;5.00;;;;;;;7.78;100.00;162600.31;5031669;28;20037;-56
2022/04/09 09:15:25;;;;;;;9.00;3.45;;;;;;;9.14;100.00;162954.88;5032564;28;20051;-56
2022/04/09 09:18:00;;;;;;;8.18;2.70;;;;;;;9.78;100.00;163122.16;5031504;28;20688;-56
2022/04/09 09:20:25;;;;;;;13.27;3.50;;;;;;;10.33;100.00;163265.16;5032590;28;20108;-56
2022/04/09 09:22:51;;;;;;;12.82;3.65;;;;;;;9.58;100.00;163068.16;5031404;28;20122;-56
2022/04/09 09:25:17;;;;;;;10.63;3.70;;;;;;;8.26;100.00;162725.63;5032803;28;20036;-56
2022/04/09 09:27:43;;;;;;;12.95;3.58;;;;;;;7.92;100.00;162636.72;5031211;28;20046;-56
2022/04/09 09:30:10;;;;;;;7.88;2.58;;;;;;;7.58;100.00;162546.44;5032658;28;20489;-56
2022/04/09 09:32:36;;;;;;;2.25;1.67;;;;;;;7.03;100.00;162402.31;5030377;28;20554;-56
2022/04/09 09:35:02;;;;;;;2.60;1.95;;;;;;;6.42;100.00;162244.75;5032664;28;20021;-56
2022/04/09 09:37:30;;;;;;;3.70;1.60;;;;;;;5.72;100.00;162063.03;5031345;28;20041;-56
2022/04/09 09:39:55;;;;;;;1.90;1.60;;;;;;;5.72;100.00;162063.03;5032998;28;20501;-56
2022/04/09 09:42:22;;;;;;;2.63;1.65;;;;;;;6.12;100.00;162165.38;5031225;28;20464;-56
2022/04/09 09:44:48;;;;;;;3.00;2.30;;;;;;;6.78;100.00;162337.66;5032195;28;20029;-56
2022/04/09 09:47:17;;;;;;;11.07;2.58;;;;;;;7.10;100.00;162422.50;5031215;28;20037;-56
2022/04/09 09:49:56;;;;;;;8.52;3.70;;;;;;;7.58;100.00;162547.75;5047922;28;20037;-55
2022/04/09 09:52:28;;;;;;;7.97;2.25;;;;;;;7.03;100.00;162402.31;5010962;28;20049;-56
2022/04/09 09:55:10;;;;;;;7.78;2.60;;;;;;;6.93;100.00;162378.06;5017516;28;20476;-56
2022/04/09 09:57:38;;;;;;;7.50;2.10;;;;;;;6.75;100.00;162329.56;5030735;28;20087;-56
2022/04/09 10:00:06;;;;;;;3.05;1.73;;;;;;;6.67;100.00;162310.72;5032019;28;20053;-55
2022/04/09 10:02:31;;;;;;;6.22;1.92;;;;;;;7.51;100.00;162528.91;5030304;28;20076;-56
2022/04/09 10:04:57;;;;;;;6.85;2.13;;;;;;;8.52;100.00;162793.09;5032549;28;20049;-56
2022/04/09 10:07:24;;;;;;;5.00;2.53;;;;;;;8.82;100.00;162871.31;5030329;28;20056;-56
2022/04/09 10:09:49;;;;;;;10.25;3.22;;;;;;;8.94;100.00;162900.94;5032302;28;20040;-56
2022/04/09 10:12:28;;;;;;;3.22;1.70;;;;;;;8.76;100.00;162855.09;5030926;28;20037;-56
2022/04/09 10:14:55;;;;;;;6.03;2.17;;;;;;;9.25;100.00;162981.84;5032110;28;20100;-56
2022/04/09 10:17:22;;;;;;;6.82;2.58;;;;;;;8.44;100.00;162771.50;5030426;28;20516;-56
2022/04/09 10:19:56;;;;;;;3.45;2.42;;;;;;;7.68;100.00;162573.34;5032326;28;20108;-56
2022/04/09 10:22:31;;;;;;;4.55;1.85;;;;;;;7.07;100.00;162413.06;5030113;28;20471;-56
2022/04/09 10:24:59;;;;;;;4.68;1.63;;;;;;;6.42;100.00;162243.44;5032192;28;20465;-56
2022/04/09 10:27:35;;;;;;;2.75;2.00;;;;;;;6.39;100.00;162235.34;5029880;28;20144;-56
2022/04/09 10:30:02;;;;;;;5.88;2.30;;;;;;;6.20;100.00;162186.91;5032460;28;20104;-55
2022/04/09 10:32:48;;;;;;;2.28;1.95;;;;;;;6.10;100.00;162159.97;5030510;28;20042;-56
2022/04/09 10:35:32;;;;;;;3.28;2.10;;;;;;;6.25;100.00;162200.34;5031589;28;20024;-56
2022/04/09 10:38:06;;;;;;;3.58;1.77;;;;;;;6.43;100.00;162247.47;5010932;28;20085;-56
2022/04/09 10:40:32;;;;;;;3.72;1.40;;;;;;;6.17;100.00;162180.19;5029975;28;20021;-56
2022/04/09 10:42:58;;;;;;;4.35;2.10;;;;;;;5.95;100.00;162122.25;5030037;28;20044;-56
2022/04/09 10:45:24;;;;;;;5.60;1.92;;;;;;;5.61;100.00;162033.47;5031489;28;20411;-56
2022/04/09 10:48:14;;;;;;;2.75;1.92;;;;;;;5.73;100.00;162064.41;5030430;28;20048;-56
2022/04/09 10:51:08;;;;;;;4.70;2.00;;;;;;;6.59;100.00;162287.84;5031277;28;20025;-56
2022/04/09 10:53:35;;;;;;;11.25;3.90;;;;;;;7.70;100.00;162577.44;5030480;28;20598;-56
2022/04/09 10:56:25;;;;;;;5.82;1.83;;;;;;;7.92;100.00;162636.72;5030025;28;20051;-56
2022/04/09 10:59:28;;;;;;;5.85;2.17;;;;;;;8.25;100.00;162721.63;5031654;28;20025;-55
2022/04/09 11:01:54;;;;;;;8.18;3.00;;;;;;;7.76;100.00;162593.59;5029756;28;20046;-56
2022/04/09 11:04:25;;;;;;;11.13;3.67;;;;;;;6.67;100.00;162309.41;5031236;28;20033;-56
2022/04/09 11:06:59;;;;;;;3.30;1.63;;;;;;;5.53;100.00;162011.94;5029660;28;20120;-56
2022/04/09 11:09:26;;;;;;;10.25;3.63;;;;;;;4.91;100.00;161850.50;5031448;28;20053;-56
2022/04/09 11:12:01;;;;;;;2.42;2.10;;;;;;;4.62;100.00;161773.88;5029706;28;20412;-56
2022/04/09 11:14:26;;;;;;;2.78;2.55;;;;;;;4.28;100.00;161687.81;5031525;28;20025;-56
2022/04/09 11:16:52;;;;;;;5.53;3.00;;;;;;;4.34;100.00;161701.25;5029763;28;20041;-56
2022/04/09 11:19:21;;;;;;;2.05;1.52;;;;;;;4.98;100.00;161869.31;5030780;28;20033;-56
2022/04/09 11:21:50;;;;;;;3.97;2.08;;;;;;;5.95;100.00;162122.25;5029808;28;20034;-56